Allison Crosby — WDF2763 — position and weather

sailwx.info

Track history (hours):
 
Tides and Currents Weather Stations Pressure Air Temp Water Temp Dewpoint Dewpoint Depression Visibility Wind Speed Wind Dir Waves Ship Positions

Allison Crosby

Owner: Crosby Marine Transportation LLC, Golden Meadow, LA. More information available from US FCC via Universal Licensing System and Coast Guard Vessel Documentation Center.

Last reported at 2017-Jun-09 21:57 UTC. Time now 2017-Sep-19 13:45 UTC.
Position N 40°52' W 073°56'.
Warning: this ship's position is months out of date.

Date/timePositionNaut miles runAvg speedWind from/ knotsBaromVisibWave heightAir tempDewpointWater temp
2017-Jun-09 21:57N 40°52' W 073°56'0 0.0
2017-Jun-09 21:27N 40°52' W 073°56'0 0.0
2017-Jun-09 21:00N 40°52' W 073°56'0 0.0
2017-Jun-09 20:27N 40°52' W 073°56'0 0.0
2017-Jun-09 20:00N 40°52' W 073°56'0 0.0
2017-Jun-09 19:27N 40°53' W 073°56'3 5.6
2017-Jun-09 19:00N 40°50' W 073°57'3 6.1
2017-Jun-09 18:30N 40°47' W 073°59'3 6.3
2017-Jun-09 18:00N 40°45' W 074°01'3 6.8
2017-Jun-09 17:30N 40°41' W 074°02'2 3.4
2017-Jun-09 16:58N 40°39' W 074°02'0 0.1
2017-Jun-09 16:28N 40°39' W 074°02'3 7.0
2017-Jun-09 15:58N 40°39' W 074°07'2 4.7
2017-Jun-09 15:27N 40°38' W 074°10'0 0.0
2017-Jun-09 15:00N 40°38' W 074°10'0 0.0
2017-Jun-09 14:30N 40°38' W 074°10'0 0.0
2017-Jun-09 13:18N 40°38' W 074°10'0 0.0
2017-Jun-09 12:57N 40°38' W 074°10'0 0.0
2017-Jun-09 12:30N 40°38' W 074°10'0 0.0
2017-Jun-09 12:00N 40°38' W 074°10'0 0.1
2017-Jun-09 11:30N 40°39' W 074°10'5 9.9
2017-Jun-09 11:00N 40°39' W 074°03'1 1.8
2017-Jun-09 10:30N 40°39' W 074°02'0 0.1
2017-Jun-09 10:00N 40°39' W 074°02'0 0.0
2017-Jun-09 09:30N 40°39' W 074°02'0 0.0
2017-Jun-09 09:00N 40°39' W 074°02'0 0.0
2017-Jun-09 08:30N 40°39' W 074°02'0 0.0
2017-Jun-09 08:00N 40°39' W 074°02'0 0.0
2017-Jun-09 07:30N 40°39' W 074°02'0 0.0
2017-Jun-09 07:00N 40°39' W 074°02'0 0.0
2017-Jun-09 06:30N 40°39' W 074°02'0 0.0
2017-Jun-09 06:00N 40°39' W 074°02'0 0.0
2017-Jun-09 05:30N 40°39' W 074°02'0 0.0
2017-Jun-09 05:00N 40°39' W 074°02'0 0.1
2017-Jun-09 04:30N 40°39' W 074°02'0 0.1
2017-Jun-09 04:00N 40°39' W 074°02'0 0.1
2017-Jun-09 03:30N 40°39' W 074°02'0 0.1
2017-Jun-09 03:00N 40°39' W 074°02'0 0.2
2017-Jun-09 02:30N 40°40' W 074°02'0 0.1
2017-Jun-09 02:00N 40°40' W 074°02'0 0.0
2017-Jun-09 01:27N 40°40' W 074°02'0 0.0
2017-Jun-09 01:00N 40°40' W 074°02'0 0.0
2017-Jun-09 00:30N 40°40' W 074°02'0 0.0
2017-Jun-09 00:00N 40°40' W 074°02'0 0.0
2017-Jun-08 23:30N 40°40' W 074°02'0 0.1
2017-Jun-08 23:00N 40°40' W 074°02'0 0.2
2017-Jun-08 22:30N 40°40' W 074°02'0 0.0
2017-Jun-08 22:00N 40°40' W 074°02'0 0.1
2017-Jun-08 21:24N 40°40' W 074°02'0 0.2
2017-Jun-08 21:00N 40°39' W 074°02'0 0.0
2017-Jun-08 20:30N 40°39' W 074°02'0 0.0
2017-Jun-08 20:00N 40°39' W 074°02'0 0.0
2017-Jun-08 19:30N 40°39' W 074°02'0 0.0
2017-Jun-08 19:00N 40°39' W 074°02'0 0.0
2017-Jun-08 18:30N 40°39' W 074°02'0 0.0
2017-Jun-08 18:00N 40°39' W 074°02'0 0.0
2017-Jun-08 17:30N 40°39' W 074°02'0 0.0
2017-Jun-08 17:00N 40°39' W 074°02'0 0.0
2017-Jun-08 16:30N 40°39' W 074°02'6 8.0
2017-Jun-08 15:46N 40°39' W 074°10'1 0.2
2017-Jun-08 11:37N 40°38' W 074°09'110.4
2017-Jun-08 11:30N 40°39' W 074°08'4 7.7
2017-Jun-08 10:58N 40°40' W 074°02'0 0.1
2017-Jun-08 10:28N 40°39' W 074°02'0 0.1
2017-Jun-08 09:58N 40°39' W 074°02'0 0.0
2017-Jun-08 09:28N 40°39' W 074°02'0 0.0
2017-Jun-08 08:58N 40°39' W 074°02'0 0.0
2017-Jun-08 08:28N 40°39' W 074°02'0 0.0
2017-Jun-08 07:58N 40°39' W 074°02'0 0.0
2017-Jun-08 07:22N 40°39' W 074°02'0 0.0
2017-Jun-08 06:58N 40°39' W 074°02'0 0.0
2017-Jun-08 06:28N 40°39' W 074°02'0 0.0
2017-Jun-08 05:58N 40°39' W 074°02'0 0.0
2017-Jun-08 05:28N 40°39' W 074°02'0 0.0
2017-Jun-08 04:58N 40°39' W 074°02'0 0.0
2017-Jun-08 04:28N 40°39' W 074°02'0 0.0
2017-Jun-08 03:58N 40°39' W 074°02'0 0.1
2017-Jun-08 03:28N 40°39' W 074°02'0 0.1
2017-Jun-08 02:58N 40°39' W 074°02'0 0.1
2017-Jun-08 02:28N 40°39' W 074°02'0 0.3
2017-Jun-08 01:58N 40°40' W 074°02'0 0.0
2017-Jun-08 01:28N 40°40' W 074°02'0 0.0
2017-Jun-08 00:58N 40°40' W 074°02'0 0.0
2017-Jun-08 00:28N 40°40' W 074°02'0 0.0
2017-Jun-07 23:58N 40°40' W 074°02'0 0.0
2017-Jun-07 23:28N 40°40' W 074°02'0 0.1
2017-Jun-07 22:58N 40°40' W 074°02'0 0.1
2017-Jun-07 22:28N 40°40' W 074°02'0 0.0
2017-Jun-07 21:58N 40°40' W 074°02'2 4.5
2017-Jun-07 21:30N 40°39' W 074°05'4 7.0
2017-Jun-07 20:58N 40°38' W 074°10'0 0.0
2017-Jun-07 20:25N 40°38' W 074°10'0 0.0
2017-Jun-07 19:58N 40°38' W 074°10'0 0.0
2017-Jun-07 19:28N 40°38' W 074°10'0 0.0
2017-Jun-07 18:58N 40°38' W 074°10'0 0.0
2017-Jun-07 18:31N 40°38' W 074°10'0 0.0
2017-Jun-07 17:58N 40°38' W 074°10'0 0.0
2017-Jun-07 17:22N 40°38' W 074°10'0 0.0
2017-Jun-07 16:52N 40°38' W 074°10'0 0.0
2017-Jun-07 16:22N 40°38' W 074°10'0 0.0
2017-Jun-07 15:55N 40°38' W 074°10'0 0.0
2017-Jun-07 15:28N 40°38' W 074°10'0 0.0
2017-Jun-07 14:55N 40°38' W 074°10'0 0.0
2017-Jun-07 13:58N 40°38' W 074°10'0 0.0
2017-Jun-07 13:28N 40°38' W 074°10'0 0.0
2017-Jun-07 12:58N 40°38' W 074°10'0 0.0
2017-Jun-07 12:25N 40°38' W 074°10'0 0.0
2017-Jun-07 11:58N 40°38' W 074°10'0 0.0
2017-Jun-07 11:28N 40°38' W 074°10'0 0.0
2017-Jun-07 10:55N 40°38' W 074°10'2 5.6
2017-Jun-07 10:30N 40°39' W 074°07'4 7.0
2017-Jun-07 10:00N 40°39' W 074°02'0 0.1
2017-Jun-07 09:30N 40°39' W 074°02'0 0.1
2017-Jun-07 09:00N 40°39' W 074°02'0 0.0
2017-Jun-07 08:30N 40°39' W 074°02'0 0.0
2017-Jun-07 08:00N 40°39' W 074°02'0 0.0
2017-Jun-07 07:30N 40°39' W 074°02'0 0.0
2017-Jun-07 07:00N 40°39' W 074°02'0 0.0
2017-Jun-07 06:30N 40°39' W 074°02'0 0.0
2017-Jun-07 06:00N 40°39' W 074°02'0 0.0
2017-Jun-07 05:30N 40°39' W 074°02'0 0.0
2017-Jun-07 05:00N 40°39' W 074°02'0 0.0
2017-Jun-07 04:30N 40°39' W 074°02'0 0.1
2017-Jun-07 04:00N 40°39' W 074°02'0 0.0
2017-Jun-07 03:30N 40°39' W 074°02'0 0.0
2017-Jun-07 03:00N 40°39' W 074°02'0 0.0
2017-Jun-07 02:27N 40°39' W 074°02'0 0.0
2017-Jun-07 01:57N 40°39' W 074°02'0 0.0
2017-Jun-07 01:30N 40°39' W 074°02'0 0.1
2017-Jun-07 01:00N 40°40' W 074°02'0 0.2
2017-Jun-07 00:30N 40°40' W 074°02'1 2.6
2017-Jun-07 00:01N 40°41' W 074°02'4 7.8
2017-Jun-06 23:30N 40°45' W 074°01'4 7.1
2017-Jun-06 23:00N 40°48' W 073°59'4 7.5
2017-Jun-06 22:31N 40°51' W 073°57'1 3.0
2017-Jun-06 22:00N 40°53' W 073°56'0 0.2
2017-Jun-06 21:30N 40°53' W 073°56'0 0.1
2017-Jun-06 21:00N 40°53' W 073°56'0 0.1
2017-Jun-06 20:24N 40°53' W 073°56'0 0.0
2017-Jun-06 20:00N 40°53' W 073°56'0 0.0
2017-Jun-06 19:24N 40°53' W 073°56'0 0.0
2017-Jun-06 19:00N 40°53' W 073°56'0 0.0
2017-Jun-06 18:30N 40°53' W 073°56'0 0.0
2017-Jun-06 18:00N 40°53' W 073°56'0 0.0
2017-Jun-06 17:30N 40°53' W 073°56'0 0.0
2017-Jun-06 17:00N 40°53' W 073°56'0 0.0
2017-Jun-06 16:30N 40°53' W 073°56'0 0.0
2017-Jun-06 16:00N 40°53' W 073°56'0 0.0
2017-Jun-06 15:27N 40°53' W 073°56'0 0.0
2017-Jun-06 14:51N 40°53' W 073°56'0 0.0
2017-Jun-06 14:27N 40°53' W 073°56'0 0.1
2017-Jun-06 11:54N 40°53' W 073°56'0 0.1
2017-Jun-06 11:30N 40°53' W 073°56'0 0.2
2017-Jun-06 11:00N 40°53' W 073°56'0 0.1
2017-Jun-06 10:27N 40°53' W 073°56'0 0.0
2017-Jun-06 09:57N 40°53' W 073°56'0 0.0
2017-Jun-06 09:30N 40°53' W 073°56'0 0.0
2017-Jun-06 09:00N 40°53' W 073°56'0 0.0
2017-Jun-06 08:27N 40°53' W 073°56'0 0.0
2017-Jun-06 07:57N 40°53' W 073°56'0 0.0
2017-Jun-06 07:30N 40°53' W 073°56'0 0.0
2017-Jun-06 07:00N 40°53' W 073°56'0 0.0
2017-Jun-06 06:27N 40°53' W 073°56'0 0.0
2017-Jun-06 05:48N 40°53' W 073°56'0 0.1
2017-Jun-06 05:30N 40°53' W 073°56'0 0.0
2017-Jun-06 04:51N 40°53' W 073°56'0 0.1
2017-Jun-06 04:27N 40°53' W 073°56'0 0.0
2017-Jun-06 03:51N 40°53' W 073°56'0 0.1
2017-Jun-06 03:30N 40°53' W 073°56'0 0.1
2017-Jun-06 03:00N 40°53' W 073°56'0 0.2
2017-Jun-06 01:57N 40°53' W 073°56'0 0.0
2017-Jun-06 01:12N 40°53' W 073°56'0 0.0
2017-Jun-05 20:30N 40°53' W 073°56'0 0.1
2017-Jun-05 19:54N 40°53' W 073°56'0 0.0
2017-Jun-05 19:30N 40°53' W 073°56'0 0.0
2017-Jun-05 19:00N 40°53' W 073°56'0 0.0
2017-Jun-05 18:30N 40°53' W 073°56'0 0.0
2017-Jun-05 17:54N 40°53' W 073°56'0 0.0
2017-Jun-05 17:24N 40°53' W 073°56'0 0.0
2017-Jun-05 16:57N 40°53' W 073°56'0 0.0
2017-Jun-05 16:24N 40°53' W 073°56'0 0.0
2017-Jun-05 16:00N 40°53' W 073°56'0 0.0
2017-Jun-05 15:24N 40°53' W 073°56'0 0.0
2017-Jun-05 15:00N 40°53' W 073°56'0 0.0
2017-Jun-05 14:00N 40°53' W 073°56'0 0.1
2017-Jun-05 13:24N 40°53' W 073°56'0 0.2
2017-Jun-05 12:30N 40°53' W 073°56'0 0.0
2017-Jun-05 11:42N 40°53' W 073°56'0 0.0
2017-Jun-05 09:39N 40°53' W 073°56'0 0.4
2017-Jun-05 09:27N 40°53' W 073°56'0 0.2
2017-Jun-05 09:00N 40°53' W 073°56'0 0.1
2017-Jun-05 08:30N 40°53' W 073°56'0 0.0
2017-Jun-05 08:00N 40°53' W 073°56'0 0.0
2017-Jun-05 07:30N 40°53' W 073°56'0 0.0
2017-Jun-05 06:57N 40°53' W 073°56'0 0.0
2017-Jun-05 06:30N 40°53' W 073°56'0 0.0
2017-Jun-05 06:00N 40°53' W 073°56'0 0.0
2017-Jun-05 05:30N 40°53' W 073°56'0 0.0
2017-Jun-05 05:00N 40°53' W 073°56'0 0.0
2017-Jun-05 04:18N 40°53' W 073°56'0 0.0
2017-Jun-05 03:57N 40°53' W 073°56'0 0.0
2017-Jun-05 03:27N 40°53' W 073°56'0 0.0
2017-Jun-05 03:00N 40°53' W 073°56'0 0.0
2017-Jun-05 02:30N 40°53' W 073°56'0 0.2
2017-Jun-05 02:00N 40°53' W 073°56'0 0.1
2017-Jun-05 00:45N 40°53' W 073°56'0 0.0
2017-Jun-05 00:24N 40°53' W 073°56'0 0.0
2017-Jun-04 22:36N 40°53' W 073°56'0 0.1
2017-Jun-04 22:27N 40°53' W 073°56'0 0.0
2017-Jun-04 21:45N 40°53' W 073°56'0 0.0
2017-Jun-04 21:21N 40°53' W 073°56'0 0.0
2017-Jun-04 20:48N 40°53' W 073°56'0 0.1
2017-Jun-04 19:48N 40°53' W 073°56'0 0.3
2017-Jun-04 19:24N 40°53' W 073°56'0 0.1
2017-Jun-04 19:00N 40°53' W 073°56'0 0.0
2017-Jun-04 18:27N 40°53' W 073°56'0 0.0
2017-Jun-04 18:00N 40°53' W 073°56'0 0.0
2017-Jun-04 17:27N 40°53' W 073°56'0 0.0
2017-Jun-04 17:00N 40°53' W 073°56'0 0.0
2017-Jun-04 16:24N 40°53' W 073°56'0 0.0
2017-Jun-04 15:48N 40°53' W 073°56'0 0.0
2017-Jun-04 15:30N 40°53' W 073°56'0 0.0
2017-Jun-04 15:00N 40°53' W 073°56'0 0.0
2017-Jun-04 14:30N 40°53' W 073°56'0 0.0
2017-Jun-04 13:30N 40°53' W 073°56'0 0.1
2017-Jun-04 12:42N 40°53' W 073°56'0 0.2
2017-Jun-04 12:21N 40°53' W 073°56'0 0.1
2017-Jun-04 12:00N 40°53' W 073°56'0 0.0
2017-Jun-04 11:30N 40°53' W 073°56'0 0.0
2017-Jun-04 11:00N 40°53' W 073°56'0 0.0
2017-Jun-04 08:45N 40°53' W 073°56'0 0.0
2017-Jun-04 08:30N 40°53' W 073°56'0 0.2
2017-Jun-04 07:42N 40°53' W 073°56'0 0.1
2017-Jun-04 07:27N 40°53' W 073°56'0 0.0
2017-Jun-04 06:57N 40°53' W 073°56'0 0.0
2017-Jun-04 06:30N 40°53' W 073°56'0 0.0
2017-Jun-04 06:00N 40°53' W 073°56'0 0.0
2017-Jun-04 05:30N 40°53' W 073°56'0 0.0
2017-Jun-04 05:00N 40°53' W 073°56'0 0.0
2017-Jun-04 04:30N 40°53' W 073°56'0 0.0
2017-Jun-04 04:00N 40°53' W 073°56'0 0.0
2017-Jun-04 03:30N 40°53' W 073°56'0 0.0
2017-Jun-04 02:48N 40°53' W 073°56'0 0.1
2017-Jun-04 02:28N 40°53' W 073°56'0 0.0
2017-Jun-04 01:57N 40°53' W 073°56'0 0.0
2017-Jun-04 01:30N 40°53' W 073°56'0 0.2
2017-Jun-04 00:54N 40°53' W 073°56'0 0.2
2017-Jun-04 00:30N 40°53' W 073°56'0 0.2
2017-Jun-04 00:00N 40°53' W 073°56'0 0.0
2017-Jun-03 23:15N 40°53' W 073°56'0 0.0
2017-Jun-03 22:45N 40°53' W 073°56'0 0.0
2017-Jun-03 21:00N 40°53' W 073°56'0 0.1
2017-Jun-03 19:30N 40°53' W 073°56'0 0.1
2017-Jun-03 19:00N 40°53' W 073°56'0 0.1
2017-Jun-03 18:30N 40°53' W 073°56'0 0.0
2017-Jun-03 17:57N 40°53' W 073°56'0 0.0
2017-Jun-03 17:27N 40°53' W 073°56'0 0.0
2017-Jun-03 17:00N 40°53' W 073°56'0 0.0
2017-Jun-03 16:27N 40°53' W 073°56'0 0.0
2017-Jun-03 15:54N 40°53' W 073°56'0 0.0
2017-Jun-03 15:30N 40°53' W 073°56'0 0.0
2017-Jun-03 15:00N 40°53' W 073°56'0 0.0
2017-Jun-03 14:00N 40°53' W 073°56'0 0.0
2017-Jun-03 13:27N 40°53' W 073°56'0 0.0
2017-Jun-03 12:57N 40°53' W 073°56'0 0.0
2017-Jun-03 12:27N 40°53' W 073°56'0 0.3
2017-Jun-03 11:54N 40°53' W 073°56'0 0.2
2017-Jun-03 11:31N 40°53' W 073°56'3 5.2
2017-Jun-03 11:01N 40°50' W 073°57'5 9.2
2017-Jun-03 10:31N 40°46' W 074°00'4 8.9
2017-Jun-03 10:01N 40°42' W 074°02'3 5.1
2017-Jun-03 09:30N 40°39' W 074°02'0 0.1
2017-Jun-03 09:00N 40°39' W 074°02'0 0.0
2017-Jun-03 08:30N 40°39' W 074°02'0 0.0
2017-Jun-03 08:00N 40°39' W 074°02'0 0.0
2017-Jun-03 07:30N 40°39' W 074°02'0 0.0
2017-Jun-03 07:00N 40°39' W 074°02'0 0.1
2017-Jun-03 06:30N 40°39' W 074°02'0 0.3
2017-Jun-03 06:00N 40°39' W 074°03'0 0.1
2017-Jun-03 05:30N 40°39' W 074°03'0 0.0
2017-Jun-03 05:00N 40°39' W 074°03'0 0.0
2017-Jun-03 04:30N 40°39' W 074°03'0 0.0
2017-Jun-03 03:57N 40°39' W 074°03'0 0.0
2017-Jun-03 03:30N 40°39' W 074°03'0 0.0
2017-Jun-03 03:00N 40°39' W 074°03'0 0.0
2017-Jun-03 02:27N 40°39' W 074°03'0 0.0
2017-Jun-03 02:00N 40°39' W 074°03'0 0.0
2017-Jun-03 01:30N 40°39' W 074°03'0 0.0
2017-Jun-03 01:00N 40°39' W 074°03'0 0.0
2017-Jun-03 00:30N 40°39' W 074°03'0 0.0
2017-Jun-03 00:00N 40°39' W 074°03'0 0.0
2017-Jun-02 23:27N 40°39' W 074°03'0 0.0
2017-Jun-02 23:00N 40°39' W 074°03'0 0.0
2017-Jun-02 22:27N 40°39' W 074°03'0 0.0
2017-Jun-02 22:00N 40°39' W 074°02'0 0.0
2017-Jun-02 21:30N 40°39' W 074°02'0 0.0
2017-Jun-02 21:00N 40°39' W 074°02'0 0.1
2017-Jun-02 20:30N 40°39' W 074°02'0 0.1
2017-Jun-02 20:00N 40°39' W 074°02'0 0.0
2017-Jun-02 19:30N 40°39' W 074°02'0 0.0
2017-Jun-02 19:00N 40°39' W 074°02'0 0.0
2017-Jun-02 18:30N 40°39' W 074°02'0 0.1
2017-Jun-02 18:00N 40°39' W 074°02'0 0.2
2017-Jun-02 17:30N 40°39' W 074°03'0 0.1
2017-Jun-02 17:00N 40°39' W 074°03'0 0.1
2017-Jun-02 16:30N 40°39' W 074°03'0 0.2
2017-Jun-02 16:00N 40°39' W 074°03'0 0.1
2017-Jun-02 15:30N 40°39' W 074°03'0 0.0
2017-Jun-02 14:57N 40°39' W 074°03'0 0.0
2017-Jun-02 14:00N 40°39' W 074°03'0 0.0
2017-Jun-02 13:30N 40°39' W 074°03'0 0.0
2017-Jun-02 13:00N 40°39' W 074°03'0 0.0
2017-Jun-02 12:30N 40°39' W 074°03'0 0.0
2017-Jun-02 12:00N 40°39' W 074°03'0 0.0
2017-Jun-02 11:27N 40°39' W 074°03'0 0.0
2017-Jun-02 11:00N 40°39' W 074°03'0 0.0
2017-Jun-02 10:30N 40°39' W 074°03'0 0.0
2017-Jun-02 10:00N 40°39' W 074°03'0 0.1
2017-Jun-02 09:30N 40°39' W 074°03'0 0.2
2017-Jun-02 09:00N 40°39' W 074°02'0 0.1
2017-Jun-02 08:30N 40°39' W 074°02'0 0.0
2017-Jun-02 08:00N 40°39' W 074°02'0 0.0
2017-Jun-02 07:30N 40°39' W 074°02'0 0.0
2017-Jun-02 07:00N 40°39' W 074°02'0 0.1
2017-Jun-02 06:30N 40°39' W 074°03'0 0.1
2017-Jun-02 05:57N 40°39' W 074°02'0 0.2
2017-Jun-02 05:30N 40°39' W 074°02'0 0.0
2017-Jun-02 05:00N 40°39' W 074°02'0 0.2
2017-Jun-02 04:30N 40°39' W 074°02'0 0.2
2017-Jun-02 04:00N 40°39' W 074°03'0 0.0
2017-Jun-02 03:30N 40°39' W 074°03'0 0.0
2017-Jun-02 02:57N 40°39' W 074°03'0 0.0
2017-Jun-02 02:30N 40°39' W 074°03'0 0.0
2017-Jun-02 02:00N 40°39' W 074°03'0 0.0
2017-Jun-02 01:30N 40°39' W 074°03'0 0.0
2017-Jun-02 01:00N 40°39' W 074°03'0 0.0
2017-Jun-02 00:30N 40°39' W 074°03'0 0.1
2017-Jun-02 00:00N 40°39' W 074°03'0 0.1
2017-Jun-01 23:27N 40°39' W 074°03'0 0.0
2017-Jun-01 23:00N 40°39' W 074°03'0 0.0
2017-Jun-01 22:30N 40°39' W 074°03'0 0.1
2017-Jun-01 22:00N 40°39' W 074°02'0 0.0
2017-Jun-01 21:30N 40°39' W 074°02'0 0.2
2017-Jun-01 21:00N 40°39' W 074°02'0 0.0
2017-Jun-01 20:30N 40°39' W 074°02'0 0.0
2017-Jun-01 20:00N 40°39' W 074°02'0 0.1
2017-Jun-01 19:30N 40°39' W 074°02'0 0.0
2017-Jun-01 19:00N 40°39' W 074°02'0 0.0
2017-Jun-01 18:30N 40°39' W 074°02'0 0.1
2017-Jun-01 18:00N 40°39' W 074°02'0 0.0
2017-Jun-01 17:30N 40°39' W 074°02'3 6.3
2017-Jun-01 16:59N 40°39' W 074°07'2 5.0
2017-Jun-01 16:30N 40°39' W 074°10'0 0.0
2017-Jun-01 16:00N 40°39' W 074°10'0 0.0
2017-Jun-01 15:30N 40°39' W 074°10'0 0.0
2017-Jun-01 15:00N 40°39' W 074°10'0 0.0
2017-Jun-01 14:27N 40°39' W 074°10'0 0.0
2017-Jun-01 13:27N 40°39' W 074°10'0 0.0
2017-Jun-01 13:00N 40°39' W 074°10'0 0.0
2017-Jun-01 12:27N 40°39' W 074°10'0 0.0
2017-Jun-01 12:00N 40°39' W 074°10'0 0.0
2017-Jun-01 11:27N 40°39' W 074°10'0 0.0
2017-Jun-01 11:00N 40°39' W 074°10'1 2.8
2017-Jun-01 10:30N 40°39' W 074°08'4 8.0
2017-Jun-01 09:59N 40°39' W 074°03'0 0.0
2017-Jun-01 09:29N 40°39' W 074°03'0 0.0
2017-Jun-01 08:59N 40°39' W 074°03'0 0.0
2017-Jun-01 08:29N 40°39' W 074°03'0 0.1
2017-Jun-01 07:59N 40°39' W 074°03'0 0.2
2017-Jun-01 07:29N 40°39' W 074°02'0 0.1
2017-Jun-01 06:59N 40°39' W 074°02'0 0.0
2017-Jun-01 06:29N 40°39' W 074°02'0 0.1
2017-Jun-01 05:59N 40°39' W 074°03'0 0.1
2017-Jun-01 05:29N 40°39' W 074°03'0 0.1
2017-Jun-01 04:59N 40°39' W 074°03'0 0.1
2017-Jun-01 04:29N 40°39' W 074°03'0 0.2
2017-Jun-01 03:59N 40°39' W 074°03'0 0.0
2017-Jun-01 03:29N 40°39' W 074°03'0 0.0
2017-Jun-01 02:59N 40°39' W 074°03'0 0.0
2017-Jun-01 02:29N 40°39' W 074°03'0 0.7
2017-Jun-01 01:59N 40°39' W 074°03'5 9.4
2017-Jun-01 01:30N 40°44' W 074°01'4 7.5
2017-Jun-01 00:58N 40°47' W 073°59'0 0.1
2017-Jun-01 00:28N 40°47' W 073°59'0 0.0
2017-May-31 23:58N 40°47' W 073°59'0 0.0
2017-May-31 23:28N 40°47' W 073°59'0 0.0
2017-May-31 22:58N 40°47' W 073°59'0 0.0
2017-May-31 22:28N 40°47' W 073°59'0 0.1
2017-May-31 21:58N 40°47' W 073°59'0 0.3
2017-May-31 21:28N 40°48' W 073°59'4 4.5
2017-May-31 20:30N 40°44' W 074°01'4 8.8
2017-May-31 20:00N 40°40' W 074°04'0 0.8
2017-May-31 19:25N 40°40' W 074°04'0 0.0
2017-May-31 18:58N 40°40' W 074°04'0 0.0
2017-May-31 18:28N 40°40' W 074°04'0 0.0
2017-May-31 17:55N 40°40' W 074°04'0 0.0
2017-May-31 17:25N 40°40' W 074°04'0 0.0
2017-May-31 16:55N 40°40' W 074°04'0 0.0
2017-May-31 16:25N 40°40' W 074°04'0 0.0
2017-May-31 15:55N 40°40' W 074°04'0 0.0
2017-May-31 15:28N 40°40' W 074°04'0 0.0
2017-May-31 14:55N 40°40' W 074°04'0 0.0
2017-May-31 14:25N 40°40' W 074°04'0 0.0
2017-May-31 13:28N 40°40' W 074°04'0 0.1
2017-May-31 12:58N 40°40' W 074°04'0 0.0
2017-May-31 12:28N 40°40' W 074°04'0 0.0
2017-May-31 11:58N 40°40' W 074°04'0 0.0
2017-May-31 11:28N 40°40' W 074°04'0 0.0
2017-May-31 10:58N 40°40' W 074°04'0 0.0
2017-May-31 10:28N 40°40' W 074°04'0 0.0
2017-May-31 09:58N 40°40' W 074°04'0 0.0
2017-May-31 09:28N 40°40' W 074°04'0 0.0
2017-May-31 08:58N 40°40' W 074°04'0 0.0
2017-May-31 08:28N 40°40' W 074°04'0 0.0
2017-May-31 07:58N 40°40' W 074°04'0 0.0
2017-May-31 07:28N 40°40' W 074°04'0 0.0
2017-May-31 06:58N 40°40' W 074°04'0 0.0
2017-May-31 06:28N 40°40' W 074°04'0 0.0
2017-May-31 05:58N 40°40' W 074°04'0 0.0
2017-May-31 05:28N 40°40' W 074°04'0 0.0
2017-May-31 04:58N 40°40' W 074°04'0 0.0
2017-May-31 04:28N 40°40' W 074°04'0 0.0
2017-May-31 03:58N 40°40' W 074°04'0 0.0
2017-May-31 03:28N 40°40' W 074°04'0 0.0
2017-May-31 02:58N 40°40' W 074°04'0 0.0
2017-May-31 02:28N 40°40' W 074°04'0 0.0
2017-May-31 01:58N 40°40' W 074°04'0 0.0
2017-May-31 01:28N 40°40' W 074°04'0 0.0
2017-May-31 00:58N 40°40' W 074°04'0 0.0
2017-May-31 00:28N 40°40' W 074°04'0 0.0
2017-May-30 23:58N 40°40' W 074°04'0 0.0
2017-May-30 23:28N 40°40' W 074°04'0 0.0
2017-May-30 22:58N 40°40' W 074°04'0 0.0
2017-May-30 22:28N 40°40' W 074°04'0 0.0
2017-May-30 21:58N 40°40' W 074°04'  
Track history (hours):
 
Tides and Currents Weather Stations Pressure Air Temp Water Temp Dewpoint Dewpoint Depression Visibility Wind Speed Wind Dir Waves Ship Positions

Allison Crosby

Owner: Crosby Marine Transportation LLC, Golden Meadow, LA. More information available from US FCC via Universal Licensing System and Coast Guard Vessel Documentation Center.

Last reported at 2017-Jun-09 21:57 UTC. Time now 2017-Sep-19 13:45 UTC.
Position N 40°52' W 073°56'.
Warning: this ship's position is months out of date.

Date/timePositionNaut miles runAvg speedWind from/ knotsBaromVisibWave heightAir tempDewpointWater temp
2017-Jun-09 21:57N 40°52' W 073°56'0 0.0
2017-Jun-09 21:27N 40°52' W 073°56'0 0.0
2017-Jun-09 21:00N 40°52' W 073°56'0 0.0
2017-Jun-09 20:27N 40°52' W 073°56'0 0.0
2017-Jun-09 20:00N 40°52' W 073°56'0 0.0
2017-Jun-09 19:27N 40°53' W 073°56'3 5.6
2017-Jun-09 19:00N 40°50' W 073°57'3 6.1
2017-Jun-09 18:30N 40°47' W 073°59'3 6.3
2017-Jun-09 18:00N 40°45' W 074°01'3 6.8
2017-Jun-09 17:30N 40°41' W 074°02'2 3.4
2017-Jun-09 16:58N 40°39' W 074°02'0 0.1
2017-Jun-09 16:28N 40°39' W 074°02'3 7.0
2017-Jun-09 15:58N 40°39' W 074°07'2 4.7
2017-Jun-09 15:27N 40°38' W 074°10'0 0.0
2017-Jun-09 15:00N 40°38' W 074°10'0 0.0
2017-Jun-09 14:30N 40°38' W 074°10'0 0.0
2017-Jun-09 13:18N 40°38' W 074°10'0 0.0
2017-Jun-09 12:57N 40°38' W 074°10'0 0.0
2017-Jun-09 12:30N 40°38' W 074°10'0 0.0
2017-Jun-09 12:00N 40°38' W 074°10'0 0.1
2017-Jun-09 11:30N 40°39' W 074°10'5 9.9
2017-Jun-09 11:00N 40°39' W 074°03'1 1.8
2017-Jun-09 10:30N 40°39' W 074°02'0 0.1
2017-Jun-09 10:00N 40°39' W 074°02'0 0.0
2017-Jun-09 09:30N 40°39' W 074°02'0 0.0
2017-Jun-09 09:00N 40°39' W 074°02'0 0.0
2017-Jun-09 08:30N 40°39' W 074°02'0 0.0
2017-Jun-09 08:00N 40°39' W 074°02'0 0.0
2017-Jun-09 07:30N 40°39' W 074°02'0 0.0
2017-Jun-09 07:00N 40°39' W 074°02'0 0.0
2017-Jun-09 06:30N 40°39' W 074°02'0 0.0
2017-Jun-09 06:00N 40°39' W 074°02'0 0.0
2017-Jun-09 05:30N 40°39' W 074°02'0 0.0
2017-Jun-09 05:00N 40°39' W 074°02'0 0.1
2017-Jun-09 04:30N 40°39' W 074°02'0 0.1
2017-Jun-09 04:00N 40°39' W 074°02'0 0.1
2017-Jun-09 03:30N 40°39' W 074°02'0 0.1
2017-Jun-09 03:00N 40°39' W 074°02'0 0.2
2017-Jun-09 02:30N 40°40' W 074°02'0 0.1
2017-Jun-09 02:00N 40°40' W 074°02'0 0.0
2017-Jun-09 01:27N 40°40' W 074°02'0 0.0
2017-Jun-09 01:00N 40°40' W 074°02'0 0.0
2017-Jun-09 00:30N 40°40' W 074°02'0 0.0
2017-Jun-09 00:00N 40°40' W 074°02'0 0.0
2017-Jun-08 23:30N 40°40' W 074°02'0 0.1
2017-Jun-08 23:00N 40°40' W 074°02'0 0.2
2017-Jun-08 22:30N 40°40' W 074°02'0 0.0
2017-Jun-08 22:00N 40°40' W 074°02'0 0.1
2017-Jun-08 21:24N 40°40' W 074°02'0 0.2
2017-Jun-08 21:00N 40°39' W 074°02'0 0.0
2017-Jun-08 20:30N 40°39' W 074°02'0 0.0
2017-Jun-08 20:00N 40°39' W 074°02'0 0.0
2017-Jun-08 19:30N 40°39' W 074°02'0 0.0
2017-Jun-08 19:00N 40°39' W 074°02'0 0.0
2017-Jun-08 18:30N 40°39' W 074°02'0 0.0
2017-Jun-08 18:00N 40°39' W 074°02'0 0.0
2017-Jun-08 17:30N 40°39' W 074°02'0 0.0
2017-Jun-08 17:00N 40°39' W 074°02'0 0.0
2017-Jun-08 16:30N 40°39' W 074°02'6 8.0
2017-Jun-08 15:46N 40°39' W 074°10'1 0.2
2017-Jun-08 11:37N 40°38' W 074°09'110.4
2017-Jun-08 11:30N 40°39' W 074°08'4 7.7
2017-Jun-08 10:58N 40°40' W 074°02'0 0.1
2017-Jun-08 10:28N 40°39' W 074°02'0 0.1
2017-Jun-08 09:58N 40°39' W 074°02'0 0.0
2017-Jun-08 09:28N 40°39' W 074°02'0 0.0
2017-Jun-08 08:58N 40°39' W 074°02'0 0.0
2017-Jun-08 08:28N 40°39' W 074°02'0 0.0
2017-Jun-08 07:58N 40°39' W 074°02'0 0.0
2017-Jun-08 07:22N 40°39' W 074°02'0 0.0
2017-Jun-08 06:58N 40°39' W 074°02'0 0.0
2017-Jun-08 06:28N 40°39' W 074°02'0 0.0
2017-Jun-08 05:58N 40°39' W 074°02'0 0.0
2017-Jun-08 05:28N 40°39' W 074°02'0 0.0
2017-Jun-08 04:58N 40°39' W 074°02'0 0.0
2017-Jun-08 04:28N 40°39' W 074°02'0 0.0
2017-Jun-08 03:58N 40°39' W 074°02'0 0.1
2017-Jun-08 03:28N 40°39' W 074°02'0 0.1
2017-Jun-08 02:58N 40°39' W 074°02'0 0.1
2017-Jun-08 02:28N 40°39' W 074°02'0 0.3
2017-Jun-08 01:58N 40°40' W 074°02'0 0.0
2017-Jun-08 01:28N 40°40' W 074°02'0 0.0
2017-Jun-08 00:58N 40°40' W 074°02'0 0.0
2017-Jun-08 00:28N 40°40' W 074°02'0 0.0
2017-Jun-07 23:58N 40°40' W 074°02'0 0.0
2017-Jun-07 23:28N 40°40' W 074°02'0 0.1
2017-Jun-07 22:58N 40°40' W 074°02'0 0.1
2017-Jun-07 22:28N 40°40' W 074°02'0 0.0
2017-Jun-07 21:58N 40°40' W 074°02'2 4.5
2017-Jun-07 21:30N 40°39' W 074°05'4 7.0
2017-Jun-07 20:58N 40°38' W 074°10'0 0.0
2017-Jun-07 20:25N 40°38' W 074°10'0 0.0
2017-Jun-07 19:58N 40°38' W 074°10'0 0.0
2017-Jun-07 19:28N 40°38' W 074°10'0 0.0
2017-Jun-07 18:58N 40°38' W 074°10'0 0.0
2017-Jun-07 18:31N 40°38' W 074°10'0 0.0
2017-Jun-07 17:58N 40°38' W 074°10'0 0.0
2017-Jun-07 17:22N 40°38' W 074°10'0 0.0
2017-Jun-07 16:52N 40°38' W 074°10'0 0.0
2017-Jun-07 16:22N 40°38' W 074°10'0 0.0
2017-Jun-07 15:55N 40°38' W 074°10'0 0.0
2017-Jun-07 15:28N 40°38' W 074°10'0 0.0
2017-Jun-07 14:55N 40°38' W 074°10'0 0.0
2017-Jun-07 13:58N 40°38' W 074°10'0 0.0
2017-Jun-07 13:28N 40°38' W 074°10'0 0.0
2017-Jun-07 12:58N 40°38' W 074°10'0 0.0
2017-Jun-07 12:25N 40°38' W 074°10'0 0.0
2017-Jun-07 11:58N 40°38' W 074°10'0 0.0
2017-Jun-07 11:28N 40°38' W 074°10'0 0.0
2017-Jun-07 10:55N 40°38' W 074°10'2 5.6
2017-Jun-07 10:30N 40°39' W 074°07'4 7.0
2017-Jun-07 10:00N 40°39' W 074°02'0 0.1
2017-Jun-07 09:30N 40°39' W 074°02'0 0.1
2017-Jun-07 09:00N 40°39' W 074°02'0 0.0
2017-Jun-07 08:30N 40°39' W 074°02'0 0.0
2017-Jun-07 08:00N 40°39' W 074°02'0 0.0
2017-Jun-07 07:30N 40°39' W 074°02'0 0.0
2017-Jun-07 07:00N 40°39' W 074°02'0 0.0
2017-Jun-07 06:30N 40°39' W 074°02'0 0.0
2017-Jun-07 06:00N 40°39' W 074°02'0 0.0
2017-Jun-07 05:30N 40°39' W 074°02'0 0.0
2017-Jun-07 05:00N 40°39' W 074°02'0 0.0
2017-Jun-07 04:30N 40°39' W 074°02'0 0.1
2017-Jun-07 04:00N 40°39' W 074°02'0 0.0
2017-Jun-07 03:30N 40°39' W 074°02'0 0.0
2017-Jun-07 03:00N 40°39' W 074°02'0 0.0
2017-Jun-07 02:27N 40°39' W 074°02'0 0.0
2017-Jun-07 01:57N 40°39' W 074°02'0 0.0
2017-Jun-07 01:30N 40°39' W 074°02'0 0.1
2017-Jun-07 01:00N 40°40' W 074°02'0 0.2
2017-Jun-07 00:30N 40°40' W 074°02'1 2.6
2017-Jun-07 00:01N 40°41' W 074°02'4 7.8
2017-Jun-06 23:30N 40°45' W 074°01'4 7.1
2017-Jun-06 23:00N 40°48' W 073°59'4 7.5
2017-Jun-06 22:31N 40°51' W 073°57'1 3.0
2017-Jun-06 22:00N 40°53' W 073°56'0 0.2
2017-Jun-06 21:30N 40°53' W 073°56'0 0.1
2017-Jun-06 21:00N 40°53' W 073°56'0 0.1
2017-Jun-06 20:24N 40°53' W 073°56'0 0.0
2017-Jun-06 20:00N 40°53' W 073°56'0 0.0
2017-Jun-06 19:24N 40°53' W 073°56'0 0.0
2017-Jun-06 19:00N 40°53' W 073°56'0 0.0
2017-Jun-06 18:30N 40°53' W 073°56'0 0.0
2017-Jun-06 18:00N 40°53' W 073°56'0 0.0
2017-Jun-06 17:30N 40°53' W 073°56'0 0.0
2017-Jun-06 17:00N 40°53' W 073°56'0 0.0
2017-Jun-06 16:30N 40°53' W 073°56'0 0.0
2017-Jun-06 16:00N 40°53' W 073°56'0 0.0
2017-Jun-06 15:27N 40°53' W 073°56'0 0.0
2017-Jun-06 14:51N 40°53' W 073°56'0 0.0
2017-Jun-06 14:27N 40°53' W 073°56'0 0.1
2017-Jun-06 11:54N 40°53' W 073°56'0 0.1
2017-Jun-06 11:30N 40°53' W 073°56'0 0.2
2017-Jun-06 11:00N 40°53' W 073°56'0 0.1
2017-Jun-06 10:27N 40°53' W 073°56'0 0.0
2017-Jun-06 09:57N 40°53' W 073°56'0 0.0
2017-Jun-06 09:30N 40°53' W 073°56'0 0.0
2017-Jun-06 09:00N 40°53' W 073°56'0 0.0
2017-Jun-06 08:27N 40°53' W 073°56'0 0.0
2017-Jun-06 07:57N 40°53' W 073°56'0 0.0
2017-Jun-06 07:30N 40°53' W 073°56'0 0.0
2017-Jun-06 07:00N 40°53' W 073°56'0 0.0
2017-Jun-06 06:27N 40°53' W 073°56'0 0.0
2017-Jun-06 05:48N 40°53' W 073°56'0 0.1
2017-Jun-06 05:30N 40°53' W 073°56'0 0.0
2017-Jun-06 04:51N 40°53' W 073°56'0 0.1
2017-Jun-06 04:27N 40°53' W 073°56'0 0.0
2017-Jun-06 03:51N 40°53' W 073°56'0 0.1
2017-Jun-06 03:30N 40°53' W 073°56'0 0.1
2017-Jun-06 03:00N 40°53' W 073°56'0 0.2
2017-Jun-06 01:57N 40°53' W 073°56'0 0.0
2017-Jun-06 01:12N 40°53' W 073°56'0 0.0
2017-Jun-05 20:30N 40°53' W 073°56'0 0.1
2017-Jun-05 19:54N 40°53' W 073°56'0 0.0
2017-Jun-05 19:30N 40°53' W 073°56'0 0.0
2017-Jun-05 19:00N 40°53' W 073°56'0 0.0
2017-Jun-05 18:30N 40°53' W 073°56'0 0.0
2017-Jun-05 17:54N 40°53' W 073°56'0 0.0
2017-Jun-05 17:24N 40°53' W 073°56'0 0.0
2017-Jun-05 16:57N 40°53' W 073°56'0 0.0
2017-Jun-05 16:24N 40°53' W 073°56'0 0.0
2017-Jun-05 16:00N 40°53' W 073°56'0 0.0
2017-Jun-05 15:24N 40°53' W 073°56'0 0.0
2017-Jun-05 15:00N 40°53' W 073°56'0 0.0
2017-Jun-05 14:00N 40°53' W 073°56'0 0.1
2017-Jun-05 13:24N 40°53' W 073°56'0 0.2
2017-Jun-05 12:30N 40°53' W 073°56'0 0.0
2017-Jun-05 11:42N 40°53' W 073°56'0 0.0
2017-Jun-05 09:39N 40°53' W 073°56'0 0.4
2017-Jun-05 09:27N 40°53' W 073°56'0 0.2
2017-Jun-05 09:00N 40°53' W 073°56'0 0.1
2017-Jun-05 08:30N 40°53' W 073°56'0 0.0
2017-Jun-05 08:00N 40°53' W 073°56'0 0.0
2017-Jun-05 07:30N 40°53' W 073°56'0 0.0
2017-Jun-05 06:57N 40°53' W 073°56'0 0.0
2017-Jun-05 06:30N 40°53' W 073°56'0 0.0
2017-Jun-05 06:00N 40°53' W 073°56'0 0.0
2017-Jun-05 05:30N 40°53' W 073°56'0 0.0
2017-Jun-05 05:00N 40°53' W 073°56'0 0.0
2017-Jun-05 04:18N 40°53' W 073°56'0 0.0
2017-Jun-05 03:57N 40°53' W 073°56'0 0.0
2017-Jun-05 03:27N 40°53' W 073°56'0 0.0
2017-Jun-05 03:00N 40°53' W 073°56'0 0.0
2017-Jun-05 02:30N 40°53' W 073°56'0 0.2
2017-Jun-05 02:00N 40°53' W 073°56'0 0.1
2017-Jun-05 00:45N 40°53' W 073°56'0 0.0
2017-Jun-05 00:24N 40°53' W 073°56'0 0.0
2017-Jun-04 22:36N 40°53' W 073°56'0 0.1
2017-Jun-04 22:27N 40°53' W 073°56'0 0.0
2017-Jun-04 21:45N 40°53' W 073°56'0 0.0
2017-Jun-04 21:21N 40°53' W 073°56'0 0.0
2017-Jun-04 20:48N 40°53' W 073°56'0 0.1
2017-Jun-04 19:48N 40°53' W 073°56'0 0.3
2017-Jun-04 19:24N 40°53' W 073°56'0 0.1
2017-Jun-04 19:00N 40°53' W 073°56'0 0.0
2017-Jun-04 18:27N 40°53' W 073°56'0 0.0
2017-Jun-04 18:00N 40°53' W 073°56'0 0.0
2017-Jun-04 17:27N 40°53' W 073°56'0 0.0
2017-Jun-04 17:00N 40°53' W 073°56'0 0.0
2017-Jun-04 16:24N 40°53' W 073°56'0 0.0
2017-Jun-04 15:48N 40°53' W 073°56'0 0.0
2017-Jun-04 15:30N 40°53' W 073°56'0 0.0
2017-Jun-04 15:00N 40°53' W 073°56'0 0.0
2017-Jun-04 14:30N 40°53' W 073°56'0 0.0
2017-Jun-04 13:30N 40°53' W 073°56'0 0.1
2017-Jun-04 12:42N 40°53' W 073°56'0 0.2
2017-Jun-04 12:21N 40°53' W 073°56'0 0.1
2017-Jun-04 12:00N 40°53' W 073°56'0 0.0
2017-Jun-04 11:30N 40°53' W 073°56'0 0.0
2017-Jun-04 11:00N 40°53' W 073°56'0 0.0
2017-Jun-04 08:45N 40°53' W 073°56'0 0.0
2017-Jun-04 08:30N 40°53' W 073°56'0 0.2
2017-Jun-04 07:42N 40°53' W 073°56'0 0.1
2017-Jun-04 07:27N 40°53' W 073°56'0 0.0
2017-Jun-04 06:57N 40°53' W 073°56'0 0.0
2017-Jun-04 06:30N 40°53' W 073°56'0 0.0
2017-Jun-04 06:00N 40°53' W 073°56'0 0.0
2017-Jun-04 05:30N 40°53' W 073°56'0 0.0
2017-Jun-04 05:00N 40°53' W 073°56'0 0.0
2017-Jun-04 04:30N 40°53' W 073°56'0 0.0
2017-Jun-04 04:00N 40°53' W 073°56'0 0.0
2017-Jun-04 03:30N 40°53' W 073°56'0 0.0
2017-Jun-04 02:48N 40°53' W 073°56'0 0.1
2017-Jun-04 02:28N 40°53' W 073°56'0 0.0
2017-Jun-04 01:57N 40°53' W 073°56'0 0.0
2017-Jun-04 01:30N 40°53' W 073°56'0 0.2
2017-Jun-04 00:54N 40°53' W 073°56'0 0.2
2017-Jun-04 00:30N 40°53' W 073°56'0 0.2
2017-Jun-04 00:00N 40°53' W 073°56'0 0.0
2017-Jun-03 23:15N 40°53' W 073°56'0 0.0
2017-Jun-03 22:45N 40°53' W 073°56'0 0.0
2017-Jun-03 21:00N 40°53' W 073°56'0 0.1
2017-Jun-03 19:30N 40°53' W 073°56'0 0.1
2017-Jun-03 19:00N 40°53' W 073°56'0 0.1
2017-Jun-03 18:30N 40°53' W 073°56'0 0.0
2017-Jun-03 17:57N 40°53' W 073°56'0 0.0
2017-Jun-03 17:27N 40°53' W 073°56'0 0.0
2017-Jun-03 17:00N 40°53' W 073°56'0 0.0
2017-Jun-03 16:27N 40°53' W 073°56'0 0.0
2017-Jun-03 15:54N 40°53' W 073°56'0 0.0
2017-Jun-03 15:30N 40°53' W 073°56'0 0.0
2017-Jun-03 15:00N 40°53' W 073°56'0 0.0
2017-Jun-03 14:00N 40°53' W 073°56'0 0.0
2017-Jun-03 13:27N 40°53' W 073°56'0 0.0
2017-Jun-03 12:57N 40°53' W 073°56'0 0.0
2017-Jun-03 12:27N 40°53' W 073°56'0 0.3
2017-Jun-03 11:54N 40°53' W 073°56'0 0.2
2017-Jun-03 11:31N 40°53' W 073°56'3 5.2
2017-Jun-03 11:01N 40°50' W 073°57'5 9.2
2017-Jun-03 10:31N 40°46' W 074°00'4 8.9
2017-Jun-03 10:01N 40°42' W 074°02'3 5.1
2017-Jun-03 09:30N 40°39' W 074°02'0 0.1
2017-Jun-03 09:00N 40°39' W 074°02'0 0.0
2017-Jun-03 08:30N 40°39' W 074°02'0 0.0
2017-Jun-03 08:00N 40°39' W 074°02'0 0.0
2017-Jun-03 07:30N 40°39' W 074°02'0 0.0
2017-Jun-03 07:00N 40°39' W 074°02'0 0.1
2017-Jun-03 06:30N 40°39' W 074°02'0 0.3
2017-Jun-03 06:00N 40°39' W 074°03'0 0.1
2017-Jun-03 05:30N 40°39' W 074°03'0 0.0
2017-Jun-03 05:00N 40°39' W 074°03'0 0.0
2017-Jun-03 04:30N 40°39' W 074°03'0 0.0
2017-Jun-03 03:57N 40°39' W 074°03'0 0.0
2017-Jun-03 03:30N 40°39' W 074°03'0 0.0
2017-Jun-03 03:00N 40°39' W 074°03'0 0.0
2017-Jun-03 02:27N 40°39' W 074°03'0 0.0
2017-Jun-03 02:00N 40°39' W 074°03'0 0.0
2017-Jun-03 01:30N 40°39' W 074°03'0 0.0
2017-Jun-03 01:00N 40°39' W 074°03'0 0.0
2017-Jun-03 00:30N 40°39' W 074°03'0 0.0
2017-Jun-03 00:00N 40°39' W 074°03'0 0.0
2017-Jun-02 23:27N 40°39' W 074°03'0 0.0
2017-Jun-02 23:00N 40°39' W 074°03'0 0.0
2017-Jun-02 22:27N 40°39' W 074°03'0 0.0
2017-Jun-02 22:00N 40°39' W 074°02'0 0.0
2017-Jun-02 21:30N 40°39' W 074°02'0 0.0
2017-Jun-02 21:00N 40°39' W 074°02'0 0.1
2017-Jun-02 20:30N 40°39' W 074°02'0 0.1
2017-Jun-02 20:00N 40°39' W 074°02'0 0.0
2017-Jun-02 19:30N 40°39' W 074°02'0 0.0
2017-Jun-02 19:00N 40°39' W 074°02'0 0.0
2017-Jun-02 18:30N 40°39' W 074°02'0 0.1
2017-Jun-02 18:00N 40°39' W 074°02'0 0.2
2017-Jun-02 17:30N 40°39' W 074°03'0 0.1
2017-Jun-02 17:00N 40°39' W 074°03'0 0.1
2017-Jun-02 16:30N 40°39' W 074°03'0 0.2
2017-Jun-02 16:00N 40°39' W 074°03'0 0.1
2017-Jun-02 15:30N 40°39' W 074°03'0 0.0
2017-Jun-02 14:57N 40°39' W 074°03'0 0.0
2017-Jun-02 14:00N 40°39' W 074°03'0 0.0
2017-Jun-02 13:30N 40°39' W 074°03'0 0.0
2017-Jun-02 13:00N 40°39' W 074°03'0 0.0
2017-Jun-02 12:30N 40°39' W 074°03'0 0.0
2017-Jun-02 12:00N 40°39' W 074°03'0 0.0
2017-Jun-02 11:27N 40°39' W 074°03'0 0.0
2017-Jun-02 11:00N 40°39' W 074°03'0 0.0
2017-Jun-02 10:30N 40°39' W 074°03'0 0.0
2017-Jun-02 10:00N 40°39' W 074°03'0 0.1
2017-Jun-02 09:30N 40°39' W 074°03'0 0.2
2017-Jun-02 09:00N 40°39' W 074°02'0 0.1
2017-Jun-02 08:30N 40°39' W 074°02'0 0.0
2017-Jun-02 08:00N 40°39' W 074°02'0 0.0
2017-Jun-02 07:30N 40°39' W 074°02'0 0.0
2017-Jun-02 07:00N 40°39' W 074°02'0 0.1
2017-Jun-02 06:30N 40°39' W 074°03'0 0.1
2017-Jun-02 05:57N 40°39' W 074°02'0 0.2
2017-Jun-02 05:30N 40°39' W 074°02'0 0.0
2017-Jun-02 05:00N 40°39' W 074°02'0 0.2
2017-Jun-02 04:30N 40°39' W 074°02'0 0.2
2017-Jun-02 04:00N 40°39' W 074°03'0 0.0
2017-Jun-02 03:30N 40°39' W 074°03'0 0.0
2017-Jun-02 02:57N 40°39' W 074°03'0 0.0
2017-Jun-02 02:30N 40°39' W 074°03'0 0.0
2017-Jun-02 02:00N 40°39' W 074°03'0 0.0
2017-Jun-02 01:30N 40°39' W 074°03'0 0.0
2017-Jun-02 01:00N 40°39' W 074°03'0 0.0
2017-Jun-02 00:30N 40°39' W 074°03'0 0.1
2017-Jun-02 00:00N 40°39' W 074°03'0 0.1
2017-Jun-01 23:27N 40°39' W 074°03'0 0.0
2017-Jun-01 23:00N 40°39' W 074°03'0 0.0
2017-Jun-01 22:30N 40°39' W 074°03'0 0.1
2017-Jun-01 22:00N 40°39' W 074°02'0 0.0
2017-Jun-01 21:30N 40°39' W 074°02'0 0.2
2017-Jun-01 21:00N 40°39' W 074°02'0 0.0
2017-Jun-01 20:30N 40°39' W 074°02'0 0.0
2017-Jun-01 20:00N 40°39' W 074°02'0 0.1
2017-Jun-01 19:30N 40°39' W 074°02'0 0.0
2017-Jun-01 19:00N 40°39' W 074°02'0 0.0
2017-Jun-01 18:30N 40°39' W 074°02'0 0.1
2017-Jun-01 18:00N 40°39' W 074°02'0 0.0
2017-Jun-01 17:30N 40°39' W 074°02'3 6.3
2017-Jun-01 16:59N 40°39' W 074°07'2 5.0
2017-Jun-01 16:30N 40°39' W 074°10'0 0.0
2017-Jun-01 16:00N 40°39' W 074°10'0 0.0
2017-Jun-01 15:30N 40°39' W 074°10'0 0.0
2017-Jun-01 15:00N 40°39' W 074°10'0 0.0
2017-Jun-01 14:27N 40°39' W 074°10'0 0.0
2017-Jun-01 13:27N 40°39' W 074°10'0 0.0
2017-Jun-01 13:00N 40°39' W 074°10'0 0.0
2017-Jun-01 12:27N 40°39' W 074°10'0 0.0
2017-Jun-01 12:00N 40°39' W 074°10'0 0.0
2017-Jun-01 11:27N 40°39' W 074°10'0 0.0
2017-Jun-01 11:00N 40°39' W 074°10'1 2.8
2017-Jun-01 10:30N 40°39' W 074°08'4 8.0
2017-Jun-01 09:59N 40°39' W 074°03'0 0.0
2017-Jun-01 09:29N 40°39' W 074°03'0 0.0
2017-Jun-01 08:59N 40°39' W 074°03'0 0.0
2017-Jun-01 08:29N 40°39' W 074°03'0 0.1
2017-Jun-01 07:59N 40°39' W 074°03'0 0.2
2017-Jun-01 07:29N 40°39' W 074°02'0 0.1
2017-Jun-01 06:59N 40°39' W 074°02'0 0.0
2017-Jun-01 06:29N 40°39' W 074°02'0 0.1
2017-Jun-01 05:59N 40°39' W 074°03'0 0.1
2017-Jun-01 05:29N 40°39' W 074°03'0 0.1
2017-Jun-01 04:59N 40°39' W 074°03'0 0.1
2017-Jun-01 04:29N 40°39' W 074°03'0 0.2
2017-Jun-01 03:59N 40°39' W 074°03'0 0.0
2017-Jun-01 03:29N 40°39' W 074°03'0 0.0
2017-Jun-01 02:59N 40°39' W 074°03'0 0.0
2017-Jun-01 02:29N 40°39' W 074°03'0 0.7
2017-Jun-01 01:59N 40°39' W 074°03'5 9.4
2017-Jun-01 01:30N 40°44' W 074°01'4 7.5
2017-Jun-01 00:58N 40°47' W 073°59'0 0.1
2017-Jun-01 00:28N 40°47' W 073°59'0 0.0
2017-May-31 23:58N 40°47' W 073°59'0 0.0
2017-May-31 23:28N 40°47' W 073°59'0 0.0
2017-May-31 22:58N 40°47' W 073°59'0 0.0
2017-May-31 22:28N 40°47' W 073°59'0 0.1
2017-May-31 21:58N 40°47' W 073°59'0 0.3
2017-May-31 21:28N 40°48' W 073°59'4 4.5
2017-May-31 20:30N 40°44' W 074°01'4 8.8
2017-May-31 20:00N 40°40' W 074°04'0 0.8
2017-May-31 19:25N 40°40' W 074°04'0 0.0
2017-May-31 18:58N 40°40' W 074°04'0 0.0
2017-May-31 18:28N 40°40' W 074°04'0 0.0
2017-May-31 17:55N 40°40' W 074°04'0 0.0
2017-May-31 17:25N 40°40' W 074°04'0 0.0
2017-May-31 16:55N 40°40' W 074°04'0 0.0
2017-May-31 16:25N 40°40' W 074°04'0 0.0
2017-May-31 15:55N 40°40' W 074°04'0 0.0
2017-May-31 15:28N 40°40' W 074°04'0 0.0
2017-May-31 14:55N 40°40' W 074°04'0 0.0
2017-May-31 14:25N 40°40' W 074°04'0 0.0
2017-May-31 13:28N 40°40' W 074°04'0 0.1
2017-May-31 12:58N 40°40' W 074°04'0 0.0
2017-May-31 12:28N 40°40' W 074°04'0 0.0
2017-May-31 11:58N 40°40' W 074°04'0 0.0
2017-May-31 11:28N 40°40' W 074°04'0 0.0
2017-May-31 10:58N 40°40' W 074°04'0 0.0
2017-May-31 10:28N 40°40' W 074°04'0 0.0
2017-May-31 09:58N 40°40' W 074°04'0 0.0
2017-May-31 09:28N 40°40' W 074°04'0 0.0
2017-May-31 08:58N 40°40' W 074°04'0 0.0
2017-May-31 08:28N 40°40' W 074°04'0 0.0
2017-May-31 07:58N 40°40' W 074°04'0 0.0
2017-May-31 07:28N 40°40' W 074°04'0 0.0
2017-May-31 06:58N 40°40' W 074°04'0 0.0
2017-May-31 06:28N 40°40' W 074°04'0 0.0
2017-May-31 05:58N 40°40' W 074°04'0 0.0
2017-May-31 05:28N 40°40' W 074°04'0 0.0
2017-May-31 04:58N 40°40' W 074°04'0 0.0
2017-May-31 04:28N 40°40' W 074°04'0 0.0
2017-May-31 03:58N 40°40' W 074°04'0 0.0
2017-May-31 03:28N 40°40' W 074°04'0 0.0
2017-May-31 02:58N 40°40' W 074°04'0 0.0
2017-May-31 02:28N 40°40' W 074°04'0 0.0
2017-May-31 01:58N 40°40' W 074°04'0 0.0
2017-May-31 01:28N 40°40' W 074°04'0 0.0
2017-May-31 00:58N 40°40' W 074°04'0 0.0
2017-May-31 00:28N 40°40' W 074°04'0 0.0
2017-May-30 23:58N 40°40' W 074°04'0 0.0
2017-May-30 23:28N 40°40' W 074°04'0 0.0
2017-May-30 22:58N 40°40' W 074°04'0 0.0
2017-May-30 22:28N 40°40' W 074°04'0 0.0
2017-May-30 21:58N 40°40' W 074°04'  

Dump ship's entire track history